createdAt,value
2022-08-22T00:00:59.188Z,100.00
2022-08-22T00:02:44.825Z,100.00
2022-08-22T00:02:48.497Z,100.00
2022-08-22T00:02:49.934Z,100.00
2022-08-22T00:03:12.378Z,100.00
2022-08-22T00:04:14.497Z,100.00
2022-08-22T00:07:29.867Z,100.00
2022-08-22T00:10:40.616Z,100.00
2022-08-22T00:13:42.477Z,100.00
2022-08-22T00:17:27.390Z,100.00
2022-08-22T00:20:44.573Z,100.00
2022-08-22T00:24:24.005Z,100.00
2022-08-22T00:27:34.196Z,100.00
2022-08-22T00:30:48.778Z,100.00
2022-08-22T00:33:56.700Z,100.00
2022-08-22T00:37:19.533Z,100.00
2022-08-22T00:40:21.834Z,100.00
2022-08-22T00:43:42.172Z,100.00
2022-08-22T00:47:25.300Z,100.00
2022-08-22T00:50:58.613Z,100.00
2022-08-22T00:54:17.636Z,100.00
2022-08-22T00:57:47.457Z,100.00
2022-08-22T01:00:54.795Z,100.00
2022-08-22T01:04:14.931Z,100.00
2022-08-22T01:07:48.528Z,100.00
2022-08-22T01:11:10.879Z,100.00
2022-08-22T01:14:21.499Z,100.00
2022-08-22T01:17:58.865Z,100.00
2022-08-22T01:21:41.735Z,100.00
2022-08-22T01:25:25.985Z,100.00
2022-08-22T01:29:00.305Z,100.00
2022-08-22T01:32:24.571Z,100.00
2022-08-22T01:35:44.669Z,100.00
2022-08-22T01:39:05.131Z,100.00
2022-08-22T01:42:09.438Z,100.00
2022-08-22T01:45:32.689Z,100.00
2022-08-22T01:48:38.945Z,100.00
2022-08-22T01:52:06.518Z,100.00
2022-08-22T01:55:08.076Z,100.00
2022-08-22T01:58:24.664Z,100.00
2022-08-22T02:01:31.726Z,100.00
2022-08-22T02:04:39.576Z,100.00
2022-08-22T02:08:00.729Z,100.00
2022-08-22T02:11:12.920Z,100.00
2022-08-22T02:14:20.186Z,100.00
2022-08-22T02:17:54.606Z,100.00
2022-08-22T02:21:33.679Z,100.00
2022-08-22T02:25:20.430Z,100.00
2022-08-22T02:28:56.532Z,100.00
2022-08-22T02:33:00.548Z,100.00
2022-08-22T02:36:22.834Z,100.00
2022-08-22T02:39:48.395Z,100.00
2022-08-22T02:43:15.136Z,100.00
2022-08-22T02:46:32.269Z,100.00
2022-08-22T02:49:52.682Z,100.00
2022-08-22T02:53:17.380Z,100.00
2022-08-22T02:56:25.102Z,100.00
2022-08-22T02:59:34.321Z,100.00
2022-08-22T03:02:39.812Z,100.00
2022-08-22T03:05:47.066Z,100.00
2022-08-22T03:09:07.316Z,100.00
2022-08-22T03:12:21.158Z,100.00
2022-08-22T03:15:25.575Z,100.00
2022-08-22T03:18:57.870Z,100.00
2022-08-22T03:22:31.362Z,100.00
2022-08-22T03:25:47.720Z,100.00
2022-08-22T03:28:59.970Z,100.00
2022-08-22T03:32:19.711Z,100.00
2022-08-22T03:35:32.443Z,100.00
2022-08-22T03:38:34.027Z,100.00
2022-08-22T03:42:03.134Z,100.00
2022-08-22T03:45:48.687Z,100.00
2022-08-22T03:49:12.171Z,100.00
2022-08-22T03:53:01.586Z,100.00
2022-08-22T03:56:15.026Z,100.00
2022-08-22T03:59:25.650Z,100.00
2022-08-22T04:02:47.447Z,100.00
2022-08-22T04:05:58.482Z,100.00
2022-08-22T04:09:18.214Z,100.00
2022-08-22T04:12:32.499Z,100.00
2022-08-22T04:16:02.836Z,100.00
2022-08-22T04:19:28.258Z,100.00
2022-08-22T04:23:27.001Z,100.00
2022-08-22T04:26:45.441Z,100.00
2022-08-22T04:30:09.419Z,100.00
2022-08-22T04:33:22.425Z,100.00
2022-08-22T04:36:35.016Z,100.00
2022-08-22T04:39:48.238Z,100.00
2022-08-22T04:42:59.536Z,100.00
2022-08-22T04:46:36.631Z,100.00
2022-08-22T04:50:04.553Z,100.00
2022-08-22T04:53:09.039Z,100.00
2022-08-22T04:56:54.746Z,100.00
2022-08-22T05:00:03.593Z,100.00
2022-08-22T05:03:14.498Z,100.00
2022-08-22T05:06:19.177Z,100.00
2022-08-22T05:09:27.377Z,100.00
2022-08-22T05:12:34.126Z,100.00
2022-08-22T05:15:38.244Z,100.00
2022-08-22T05:18:47.895Z,100.00
2022-08-22T05:21:51.918Z,100.00
2022-08-22T05:24:59.824Z,100.00
2022-08-22T05:28:17.939Z,100.00
2022-08-22T05:31:26.441Z,100.00
2022-08-22T05:34:34.505Z,100.00
2022-08-22T05:37:44.918Z,100.00
2022-08-22T05:40:54.735Z,100.00
2022-08-22T05:43:56.661Z,100.00
2022-08-22T05:47:05.090Z,100.00
2022-08-22T05:50:08.787Z,100.00
2022-08-22T05:53:31.438Z,100.00
2022-08-22T05:56:42.175Z,100.00
2022-08-22T05:59:48.493Z,100.00
2022-08-22T06:03:15.113Z,100.00
2022-08-22T06:06:19.713Z,100.00
2022-08-22T06:09:42.707Z,100.00
2022-08-22T06:13:02.417Z,100.00
2022-08-22T06:16:35.008Z,100.00
2022-08-22T06:19:43.433Z,100.00
2022-08-22T06:22:54.782Z,100.00
2022-08-22T06:26:00.313Z,100.00
2022-08-22T06:29:03.483Z,100.00
2022-08-22T06:32:16.130Z,100.00
2022-08-22T06:35:50.716Z,100.00
2022-08-22T06:38:54.517Z,100.00
2022-08-22T06:42:16.701Z,100.00
2022-08-22T06:45:30.166Z,100.00
2022-08-22T06:48:34.418Z,100.00
2022-08-22T06:51:38.768Z,100.00
2022-08-22T06:54:46.961Z,100.00
2022-08-22T06:57:58.712Z,100.00
2022-08-22T07:01:11.692Z,100.00
2022-08-22T07:04:14.536Z,100.00
2022-08-22T07:07:19.611Z,100.00
2022-08-22T07:10:24.112Z,99.75
2022-08-22T07:13:28.347Z,98.20
2022-08-22T07:16:34.985Z,97.66
2022-08-22T07:19:40.261Z,100.00
2022-08-22T07:22:58.316Z,100.00
2022-08-22T07:26:20.444Z,100.00
2022-08-22T07:29:30.888Z,100.00
2022-08-22T07:33:26.105Z,100.00
2022-08-22T07:36:44.903Z,100.00
2022-08-22T07:40:09.370Z,100.00
2022-08-22T07:43:28.604Z,100.00
2022-08-22T07:46:38.097Z,100.00
2022-08-22T07:49:51.422Z,100.00
2022-08-22T07:52:57.300Z,100.00
2022-08-22T07:56:00.517Z,100.00
2022-08-22T07:59:17.053Z,100.00
2022-08-22T08:02:20.449Z,100.00
2022-08-22T08:05:30.547Z,100.00
2022-08-22T08:08:39.086Z,100.00
2022-08-22T08:11:43.611Z,94.03
2022-08-22T08:14:50.304Z,91.45
2022-08-22T08:18:01.973Z,95.17
2022-08-22T08:21:07.561Z,90.80
2022-08-22T08:24:16.096Z,94.19
2022-08-22T08:27:41.046Z,95.35
2022-08-22T08:31:28.235Z,94.02
2022-08-22T08:34:35.522Z,93.83
2022-08-22T08:37:49.479Z,96.84
2022-08-22T08:41:27.877Z,97.81
2022-08-22T08:44:47.196Z,97.79
2022-08-22T08:47:54.856Z,99.85
2022-08-22T08:51:10.263Z,100.00
2022-08-22T08:54:47.212Z,100.00
2022-08-22T08:58:17.768Z,100.00
2022-08-22T09:01:44.570Z,98.12
2022-08-22T09:05:07.996Z,94.28
2022-08-22T09:08:30.749Z,93.35
2022-08-22T09:12:15.563Z,95.83
2022-08-22T09:15:23.117Z,95.60
2022-08-22T09:18:46.804Z,94.65
2022-08-22T09:21:55.602Z,92.15
2022-08-22T09:25:23.516Z,88.00
2022-08-22T09:28:53.428Z,85.64
2022-08-22T09:32:19.156Z,84.81
2022-08-22T09:35:31.103Z,86.41
2022-08-22T09:39:16.561Z,81.99
2022-08-22T09:42:31.505Z,76.62
2022-08-22T09:45:39.132Z,76.29
2022-08-22T09:48:57.967Z,77.54
2022-08-22T09:52:36.674Z,74.73
2022-08-22T09:55:59.242Z,63.12
2022-08-22T09:59:25.355Z,58.04
2022-08-22T10:02:30.726Z,56.59
2022-08-22T10:05:59.111Z,63.79
2022-08-22T10:09:26.406Z,63.28
2022-08-22T10:13:15.148Z,60.09
2022-08-22T10:16:41.758Z,57.19
2022-08-22T10:19:52.364Z,59.90
2022-08-22T10:23:21.064Z,57.16
2022-08-22T10:26:38.573Z,61.92
2022-08-22T10:30:18.559Z,64.83
2022-08-22T10:33:33.869Z,64.81
2022-08-22T10:36:40.505Z,62.45
2022-08-22T10:39:55.654Z,63.04
2022-08-22T10:43:37.793Z,65.37
2022-08-22T10:46:46.189Z,63.23
2022-08-22T10:49:54.830Z,64.83
2022-08-22T10:53:29.737Z,61.49
2022-08-22T10:57:24.199Z,61.32
2022-08-22T11:00:46.119Z,64.11
2022-08-22T11:04:10.014Z,65.40
2022-08-22T11:07:29.734Z,68.11
2022-08-22T11:10:49.052Z,64.23
2022-08-22T11:14:18.846Z,63.14
2022-08-22T11:17:54.405Z,64.17
2022-08-22T11:21:04.826Z,64.66
2022-08-22T11:24:46.527Z,64.67
2022-08-22T11:28:36.767Z,67.86
2022-08-22T11:31:51.455Z,71.46
2022-08-22T11:38:59.089Z,72.34
2022-08-22T11:42:06.041Z,72.77
2022-08-22T11:45:11.660Z,75.00
2022-08-22T11:48:39.742Z,74.97
2022-08-22T11:52:08.586Z,72.23
2022-08-22T11:55:34.397Z,71.40
2022-08-22T11:58:54.994Z,69.03
2022-08-22T12:02:04.242Z,69.50
2022-08-22T12:05:20.085Z,68.75
2022-08-22T12:08:34.142Z,69.66
2022-08-22T12:12:11.773Z,70.59
2022-08-22T12:15:33.298Z,71.22
2022-08-22T12:19:06.454Z,70.83
2022-08-22T12:22:34.983Z,70.99
2022-08-22T12:26:10.920Z,69.50
2022-08-22T12:29:19.066Z,64.88
2022-08-22T12:32:35.577Z,66.55
2022-08-22T12:35:51.265Z,63.13
2022-08-22T12:39:24.401Z,64.53
2022-08-22T12:42:34.849Z,63.83
2022-08-22T12:45:47.924Z,64.56
2022-08-22T12:49:14.539Z,69.09
2022-08-22T12:53:04.011Z,69.65
2022-08-22T12:56:14.548Z,71.40
2022-08-22T12:59:25.179Z,70.54
2022-08-22T13:02:35.102Z,73.43
2022-08-22T13:05:40.706Z,76.27
2022-08-22T13:08:46.122Z,80.55
2022-08-22T13:11:52.539Z,83.42
2022-08-22T13:15:00.204Z,84.30
2022-08-22T13:18:28.373Z,86.02
2022-08-22T13:21:36.330Z,89.54
2022-08-22T13:24:51.749Z,91.33
2022-08-22T13:28:01.300Z,91.36
2022-08-22T13:31:05.206Z,95.39
2022-08-22T13:34:32.085Z,96.69
2022-08-22T13:37:44.386Z,100.00
2022-08-22T13:40:49.574Z,100.00
2022-08-22T13:44:13.634Z,100.00
2022-08-22T13:47:19.549Z,100.00
2022-08-22T13:50:26.005Z,100.00
2022-08-22T13:53:41.571Z,100.00
2022-08-22T13:56:54.773Z,100.00
2022-08-22T14:00:12.391Z,100.00
2022-08-22T14:03:48.459Z,100.00
2022-08-22T14:07:02.082Z,100.00
2022-08-22T14:10:15.313Z,100.00
2022-08-22T14:13:32.434Z,100.00
2022-08-22T14:16:47.748Z,100.00
2022-08-22T14:20:01.737Z,100.00
2022-08-22T14:23:09.352Z,100.00
2022-08-22T14:29:59.399Z,100.00
2022-08-22T14:33:22.024Z,100.00
2022-08-22T14:36:47.324Z,100.00
2022-08-22T14:39:57.149Z,100.00
2022-08-22T14:43:08.022Z,100.00
2022-08-22T14:46:18.374Z,100.00
2022-08-22T14:49:20.870Z,100.00
2022-08-22T14:52:40.555Z,100.00
2022-08-22T14:55:53.867Z,100.00
2022-08-22T14:59:04.664Z,100.00
2022-08-22T15:02:15.974Z,100.00
2022-08-22T15:05:21.456Z,100.00
2022-08-22T15:08:27.706Z,100.00
2022-08-22T15:11:32.237Z,100.00
2022-08-22T15:14:37.132Z,100.00
2022-08-22T15:17:45.990Z,100.00
2022-08-22T15:21:03.230Z,100.00
2022-08-22T15:24:13.702Z,100.00
2022-08-22T15:27:19.727Z,100.00
2022-08-22T15:30:44.532Z,100.00
2022-08-22T15:33:47.567Z,100.00
2022-08-22T15:37:28.103Z,100.00
2022-08-22T15:40:36.190Z,100.00
2022-08-22T15:43:49.273Z,100.00
2022-08-22T15:47:23.941Z,100.00
2022-08-22T15:50:58.485Z,100.00
2022-08-22T15:54:02.630Z,100.00
2022-08-22T15:57:30.235Z,100.00
2022-08-22T16:00:45.296Z,100.00
2022-08-22T16:04:07.429Z,100.00
2022-08-22T16:07:40.236Z,100.00
2022-08-22T16:10:46.332Z,100.00
2022-08-22T16:14:21.416Z,100.00
2022-08-22T16:17:29.458Z,100.00
2022-08-22T16:20:36.958Z,100.00
2022-08-22T16:23:54.166Z,100.00
2022-08-22T16:26:56.927Z,100.00
2022-08-22T16:30:05.924Z,100.00
2022-08-22T16:33:17.853Z,100.00
2022-08-22T16:36:51.062Z,100.00
2022-08-22T16:40:13.063Z,100.00
2022-08-22T16:43:19.616Z,100.00
2022-08-22T16:46:34.597Z,100.00
2022-08-22T16:49:50.637Z,100.00
2022-08-22T16:52:58.633Z,100.00
2022-08-22T16:56:09.209Z,100.00
2022-08-22T16:59:37.278Z,100.00
2022-08-22T17:02:53.241Z,100.00
2022-08-22T17:06:13.010Z,100.00
2022-08-22T17:09:52.200Z,100.00
2022-08-22T17:13:12.928Z,100.00
2022-08-22T17:16:26.863Z,100.00
2022-08-22T17:19:39.445Z,100.00
2022-08-22T17:23:07.127Z,100.00
2022-08-22T17:26:20.304Z,100.00
2022-08-22T17:29:49.199Z,100.00
2022-08-22T17:33:15.380Z,100.00
2022-08-22T17:36:32.304Z,100.00
2022-08-22T17:40:02.240Z,100.00
2022-08-22T17:43:03.834Z,100.00
2022-08-22T17:46:22.105Z,100.00
2022-08-22T17:49:49.191Z,100.00
2022-08-22T17:52:58.920Z,100.00
2022-08-22T17:56:12.266Z,100.00
2022-08-22T17:59:21.104Z,100.00
2022-08-22T18:02:40.718Z,100.00
2022-08-22T18:05:53.786Z,100.00
2022-08-22T18:09:18.041Z,100.00
2022-08-22T18:12:22.971Z,100.00
2022-08-22T18:15:35.032Z,100.00
2022-08-22T18:19:17.256Z,100.00
2022-08-22T18:22:31.762Z,100.00
2022-08-22T18:25:44.903Z,100.00
2022-08-22T18:28:55.235Z,100.00
2022-08-22T18:31:57.298Z,100.00
2022-08-22T18:35:18.149Z,100.00
2022-08-22T18:38:56.623Z,100.00
2022-08-22T18:42:34.024Z,100.00
2022-08-22T18:45:48.222Z,100.00
2022-08-22T18:49:14.172Z,100.00
2022-08-22T18:52:14.259Z,100.00
2022-08-22T18:55:49.780Z,100.00
2022-08-22T18:59:17.399Z,100.00
2022-08-22T19:02:37.913Z,100.00
2022-08-22T19:06:04.706Z,100.00
2022-08-22T19:09:20.302Z,100.00
2022-08-22T19:12:42.139Z,100.00
2022-08-22T19:16:03.111Z,100.00
2022-08-22T19:19:17.388Z,100.00
2022-08-22T19:22:19.776Z,100.00
2022-08-22T19:25:27.717Z,100.00
2022-08-22T19:28:37.032Z,100.00
2022-08-22T19:31:41.573Z,100.00
2022-08-22T19:34:47.754Z,100.00
2022-08-22T19:37:58.819Z,100.00
2022-08-22T19:41:02.142Z,100.00
2022-08-22T19:44:04.751Z,100.00
2022-08-22T19:47:18.828Z,100.00
2022-08-22T19:50:21.904Z,100.00
2022-08-22T19:53:42.739Z,100.00
2022-08-22T19:56:48.829Z,100.00
2022-08-22T20:00:08.339Z,100.00
2022-08-22T20:03:17.774Z,100.00
2022-08-22T20:06:46.477Z,100.00
2022-08-22T20:10:27.019Z,100.00
2022-08-22T20:13:35.961Z,100.00
2022-08-22T20:17:16.572Z,100.00
2022-08-22T20:20:24.053Z,100.00
2022-08-22T20:23:38.547Z,100.00
2022-08-22T20:27:10.129Z,100.00
2022-08-22T20:30:31.693Z,100.00
2022-08-22T20:33:39.189Z,100.00
2022-08-22T20:36:55.884Z,100.00
2022-08-22T20:40:56.058Z,100.00
2022-08-22T20:44:17.284Z,100.00
2022-08-22T20:47:32.316Z,100.00
2022-08-22T20:50:44.687Z,100.00
2022-08-22T20:53:53.081Z,100.00
2022-08-22T20:57:02.809Z,100.00
2022-08-22T21:00:11.908Z,100.00
2022-08-22T21:03:42.963Z,100.00
2022-08-22T21:06:45.817Z,100.00
2022-08-22T21:10:22.840Z,100.00
2022-08-22T21:13:29.222Z,100.00
2022-08-22T21:16:33.577Z,100.00
2022-08-22T21:19:35.853Z,100.00
2022-08-22T21:22:38.454Z,100.00
2022-08-22T21:25:56.675Z,100.00
2022-08-22T21:29:05.121Z,100.00
2022-08-22T21:32:33.161Z,100.00
2022-08-22T21:35:38.202Z,100.00
2022-08-22T21:38:48.567Z,100.00
2022-08-22T21:42:02.074Z,100.00
2022-08-22T21:45:10.604Z,100.00
2022-08-22T21:48:44.473Z,100.00
2022-08-22T21:51:50.876Z,100.00
2022-08-22T21:55:34.401Z,100.00
2022-08-22T21:58:41.005Z,100.00
2022-08-22T22:01:48.608Z,100.00
2022-08-22T22:05:00.504Z,100.00
2022-08-22T22:08:09.429Z,100.00
2022-08-22T22:11:27.585Z,100.00
2022-08-22T22:14:31.820Z,100.00
2022-08-22T22:17:39.826Z,100.00
2022-08-22T22:24:28.269Z,100.00
2022-08-22T22:27:37.226Z,100.00
2022-08-22T22:30:53.240Z,100.00
2022-08-22T22:33:55.351Z,100.00
2022-08-22T22:36:57.403Z,100.00
2022-08-22T22:40:07.296Z,100.00
2022-08-22T22:43:11.624Z,100.00
2022-08-22T22:46:14.280Z,100.00
2022-08-22T22:49:16.412Z,100.00
2022-08-22T22:52:18.307Z,100.00
2022-08-22T22:55:24.308Z,100.00
2022-08-22T22:58:27.915Z,100.00
2022-08-22T23:01:34.951Z,100.00
2022-08-22T23:04:38.984Z,100.00
2022-08-22T23:07:41.833Z,100.00
2022-08-22T23:10:43.578Z,100.00
2022-08-22T23:13:46.701Z,100.00
2022-08-22T23:16:48.353Z,100.00
2022-08-22T23:19:51.462Z,100.00
2022-08-22T23:22:53.430Z,100.00
2022-08-22T23:25:55.344Z,100.00
2022-08-22T23:29:00.577Z,100.00
2022-08-22T23:32:04.743Z,100.00
2022-08-22T23:35:07.089Z,100.00
2022-08-22T23:38:10.434Z,100.00
2022-08-22T23:41:17.769Z,100.00
2022-08-22T23:44:23.812Z,100.00
2022-08-22T23:47:26.730Z,100.00
2022-08-22T23:50:28.668Z,100.00
2022-08-22T23:53:31.159Z,100.00
2022-08-22T23:56:40.267Z,100.00
2022-08-22T23:59:47.856Z,100.00
